Roslyn, Washington
Current Conditions -  °F | °C
As of 1:53 AM on Sunday 23 Nov 2014 (Local Time) from KELN Reporting Station
Clear Clear  
Wind Chill: 33°   Ceiling: Unl
Heat Index: 40°   Visibility: 10mi
Dew Point: 33°   Wind: 13mph
Humidity: 77%   Direction: 280°W
Pressure: 30.07"   Gusts: NA
Location:  47.22°N, 120.99°W
Report Text: KELN 230953Z AUTO 28011KT 10SM CLR 04/01 A3007 RMK AO2 SNB01E10 SLP194 P0000 T00440006
Loading
Personal Weather Stations






























Interactive Weather Map New forecast layout! Learn more

10-Day Weather Forecast

Advertisements
Track Severe Weather on mobile